TAF and METAR

METAR for Sarh Airport

FTTA 270500Z 00000KT CAVOK 20/09 Q1012
Report created 27. feb 06:00
wind 0 knots from N (000°) Clear sky Temperature 20° with dewpoint at 9° (Humidity 49.15%) Pressure 1012 hPa
No TAF available for Sarh Airport